Centenario Blu — 3FXD7 — position and weather

sailwx.info

Track history (hours):
 
Tides and Currents Weather Stations Pressure Air Temp Water Temp Dewpoint Dewpoint Depression Visibility Wind Speed Wind Dir Waves Ship Positions

Centenario Blu

Last reported at 2016-Oct-29 04:06 UTC. Time now 2016-Dec-08 06:03 UTC.
Position N 01°15' E 104°04'.
Warning: this ship's position is 40 days out of date.

Length 190 m; draft 12.6 m.

Type: Cargo ship. MMSI: 356832000.

Date/timePositionNaut miles runAvg speedWind from/ knotsBaromVisibWave heightAir tempDewpointWater temp
2016-Oct-29 04:06N 01°15' E 104°04'6 4.0
2016-Oct-29 02:32N 01°17' E 103°58'0 0.0
2016-Oct-28 23:32N 01°17' E 103°58'0 0.1
2016-Oct-28 21:32N 01°17' E 103°58'0 0.0
2016-Oct-28 19:29N 01°17' E 103°58'0 0.0
2016-Oct-28 16:32N 01°17' E 103°58'0 0.1
2016-Oct-28 14:29N 01°17' E 103°58'1 0.2
2016-Oct-28 09:33N 01°16' E 103°58'3 2.8
2016-Oct-28 08:33N 01°13' E 103°56'6 6.3
2016-Oct-28 07:33N 01°11' E 103°50'62 8.9
2016-Oct-28 00:33N 01°35' E 102°53'4013.2
2016-Oct-27 21:32N 01°53' E 102°17'  
Track history (hours):
 
Tides and Currents Weather Stations Pressure Air Temp Water Temp Dewpoint Dewpoint Depression Visibility Wind Speed Wind Dir Waves Ship Positions

Centenario Blu

Last reported at 2016-Oct-29 04:06 UTC. Time now 2016-Dec-08 06:03 UTC.
Position N 01°15' E 104°04'.
Warning: this ship's position is 40 days out of date.

Length 190 m; draft 12.6 m.

Type: Cargo ship. MMSI: 356832000.

Date/timePositionNaut miles runAvg speedWind from/ knotsBaromVisibWave heightAir tempDewpointWater temp
2016-Oct-29 04:06N 01°15' E 104°04'6 4.0
2016-Oct-29 02:32N 01°17' E 103°58'0 0.0
2016-Oct-28 23:32N 01°17' E 103°58'0 0.1
2016-Oct-28 21:32N 01°17' E 103°58'0 0.0
2016-Oct-28 19:29N 01°17' E 103°58'0 0.0
2016-Oct-28 16:32N 01°17' E 103°58'0 0.1
2016-Oct-28 14:29N 01°17' E 103°58'1 0.2
2016-Oct-28 09:33N 01°16' E 103°58'3 2.8
2016-Oct-28 08:33N 01°13' E 103°56'6 6.3
2016-Oct-28 07:33N 01°11' E 103°50'62 8.9
2016-Oct-28 00:33N 01°35' E 102°53'4013.2
2016-Oct-27 21:32N 01°53' E 102°17'  

Dump ship's entire track history